createdAt,value
2022-11-19T00:00:12.488Z,10.35
2022-11-19T00:01:44.415Z,10.60
2022-11-19T00:03:18.940Z,11.05
2022-11-19T00:04:50.679Z,11.20
2022-11-19T00:06:25.365Z,10.45
2022-11-19T00:07:57.143Z,10.27
2022-11-19T00:09:28.918Z,10.35
2022-11-19T00:11:10.114Z,9.77
2022-11-19T00:12:57.087Z,10.45
2022-11-19T00:14:28.966Z,10.57
2022-11-19T00:16:08.535Z,9.75
2022-11-19T00:17:40.260Z,10.77
2022-11-19T00:19:12.975Z,10.00
2022-11-19T00:20:44.715Z,10.35
2022-11-19T00:22:16.482Z,10.00
2022-11-19T00:23:48.230Z,10.05
2022-11-19T00:25:21.128Z,11.07
2022-11-19T00:26:52.846Z,10.45
2022-11-19T00:28:24.610Z,11.68
2022-11-19T00:29:56.345Z,11.25
2022-11-19T00:31:28.655Z,11.30
2022-11-19T00:33:00.383Z,12.73
2022-11-19T00:34:32.264Z,11.38
2022-11-19T00:36:06.704Z,10.80
2022-11-19T00:37:38.999Z,15.73
2022-11-19T00:39:10.747Z,12.00
2022-11-19T00:40:42.585Z,13.15
2022-11-19T00:42:14.508Z,12.85
2022-11-19T00:43:49.740Z,11.52
2022-11-19T00:45:22.027Z,11.60
2022-11-19T00:46:53.754Z,12.90
2022-11-19T00:48:25.556Z,12.32
2022-11-19T00:49:57.305Z,12.02
2022-11-19T00:51:30.726Z,12.43
2022-11-19T00:53:02.478Z,15.48
2022-11-19T00:54:34.245Z,12.73
2022-11-19T00:56:09.784Z,12.40
2022-11-19T00:57:41.504Z,12.20
2022-11-19T00:59:13.320Z,11.63
2022-11-19T01:00:46.008Z,12.95
2022-11-19T01:02:17.749Z,13.07
2022-11-19T01:03:50.383Z,11.27
2022-11-19T01:05:22.137Z,11.45
2022-11-19T01:06:53.964Z,11.60
2022-11-19T01:08:26.025Z,11.05
2022-11-19T01:09:57.804Z,10.82
2022-11-19T01:11:32.393Z,10.90
2022-11-19T01:13:22.890Z,10.65
2022-11-19T01:14:54.622Z,12.25
2022-11-19T01:16:35.389Z,12.80
2022-11-19T01:18:07.157Z,12.23
2022-11-19T01:19:38.894Z,12.38
2022-11-19T01:21:11.649Z,12.35
2022-11-19T01:22:43.498Z,12.73
2022-11-19T01:24:15.223Z,12.30
2022-11-19T01:25:46.982Z,11.35
2022-11-19T01:27:18.712Z,11.23
2022-11-19T01:28:50.516Z,11.10
2022-11-19T01:30:22.257Z,11.15
2022-11-19T01:31:53.981Z,13.13
2022-11-19T01:33:26.023Z,11.00
2022-11-19T01:34:57.749Z,11.15
2022-11-19T01:36:30.707Z,12.60
2022-11-19T01:38:04.006Z,10.98
2022-11-19T01:39:35.743Z,11.77
2022-11-19T01:41:08.461Z,12.02
2022-11-19T01:42:49.580Z,11.50
2022-11-19T01:45:06.392Z,10.32
2022-11-19T01:46:38.778Z,9.18
2022-11-19T01:48:20.712Z,9.38
2022-11-19T01:49:52.531Z,9.25
2022-11-19T01:51:30.411Z,9.48
2022-11-19T01:53:02.447Z,9.90
2022-11-19T01:54:41.364Z,8.80
2022-11-19T01:56:14.166Z,8.68
2022-11-19T01:57:46.572Z,9.15
2022-11-19T01:59:19.730Z,8.77
2022-11-19T02:00:51.680Z,8.98
2022-11-19T02:02:25.247Z,9.65
2022-11-19T02:04:01.143Z,9.05
2022-11-19T02:05:34.249Z,7.95
2022-11-19T02:07:07.467Z,9.15
2022-11-19T02:08:44.592Z,9.35
2022-11-19T02:10:16.370Z,8.90
2022-11-19T02:12:00.278Z,9.63
2022-11-19T02:13:57.144Z,8.10
2022-11-19T02:15:52.466Z,9.07
2022-11-19T02:17:43.135Z,8.88
2022-11-19T02:19:36.731Z,6.80
2022-11-19T02:21:49.610Z,8.55
2022-11-19T02:23:46.131Z,8.40
2022-11-19T02:25:34.220Z,10.25
2022-11-19T02:27:30.671Z,7.65
2022-11-19T02:29:31.050Z,9.82
2022-11-19T02:31:08.628Z,9.63
2022-11-19T02:32:40.339Z,9.25
2022-11-19T02:34:16.385Z,10.20
2022-11-19T02:35:56.372Z,8.80
2022-11-19T02:37:55.895Z,10.07
2022-11-19T02:39:51.181Z,9.30
2022-11-19T02:41:49.739Z,8.65
2022-11-19T02:43:38.823Z,10.63
2022-11-19T02:45:17.041Z,11.52
2022-11-19T02:46:53.403Z,9.60
2022-11-19T02:48:34.873Z,11.85
2022-11-19T02:50:20.392Z,8.90
2022-11-19T02:51:52.719Z,9.43
2022-11-19T02:53:24.584Z,8.60
2022-11-19T02:54:56.470Z,8.70
2022-11-19T02:56:51.610Z,9.20
2022-11-19T02:58:42.609Z,7.65
2022-11-19T03:00:33.579Z,5.65
2022-11-19T03:02:26.956Z,5.63
2022-11-19T03:04:17.324Z,8.10
2022-11-19T03:05:53.539Z,7.28
2022-11-19T03:07:25.467Z,8.90
2022-11-19T03:08:57.278Z,11.00
2022-11-19T03:10:38.699Z,9.52
2022-11-19T03:14:20.912Z,9.27
2022-11-19T03:16:13.145Z,9.10
2022-11-19T03:18:06.474Z,8.82
2022-11-19T03:19:46.782Z,9.07
2022-11-19T03:21:28.750Z,9.50
2022-11-19T03:23:06.953Z,11.85
2022-11-19T03:25:09.057Z,12.38
2022-11-19T03:26:56.280Z,10.60
2022-11-19T03:28:34.779Z,11.32
2022-11-19T03:30:08.339Z,11.07
2022-11-19T03:31:43.291Z,11.82
2022-11-19T03:33:33.753Z,11.55
2022-11-19T03:35:10.089Z,9.40
2022-11-19T03:36:44.384Z,10.43
2022-11-19T03:38:22.540Z,9.35
2022-11-19T03:39:59.103Z,9.25
2022-11-19T03:41:31.747Z,10.98
2022-11-19T03:43:07.670Z,9.32
2022-11-19T03:44:48.009Z,8.75
2022-11-19T03:46:22.085Z,7.97
2022-11-19T03:47:56.992Z,8.52
2022-11-19T03:49:34.755Z,9.98
2022-11-19T03:51:17.901Z,8.60
2022-11-19T03:52:49.815Z,7.70
2022-11-19T03:54:21.722Z,8.30
2022-11-19T03:56:01.538Z,9.38
2022-11-19T03:57:34.453Z,8.00
2022-11-19T03:59:09.000Z,9.43
2022-11-19T04:00:40.801Z,9.25
2022-11-19T04:02:13.551Z,9.57
2022-11-19T04:04:05.588Z,10.60
2022-11-19T04:05:37.408Z,11.80
2022-11-19T04:07:22.795Z,12.20
2022-11-19T04:08:54.686Z,9.43
2022-11-19T04:10:26.412Z,11.73
2022-11-19T04:11:58.149Z,11.20
2022-11-19T04:13:29.868Z,10.77
2022-11-19T04:15:01.667Z,10.35
2022-11-19T04:16:33.439Z,13.48
2022-11-19T04:18:05.267Z,11.63
2022-11-19T04:19:37.208Z,9.13
2022-11-19T04:21:08.933Z,9.27
2022-11-19T04:22:40.749Z,9.45
2022-11-19T04:24:12.801Z,9.32
2022-11-19T04:25:47.734Z,9.82
2022-11-19T04:27:19.512Z,8.32
2022-11-19T04:28:51.244Z,9.00
2022-11-19T04:30:23.045Z,9.82
2022-11-19T04:31:54.815Z,9.52
2022-11-19T04:33:26.553Z,10.02
2022-11-19T04:34:58.310Z,7.95
2022-11-19T04:36:30.088Z,10.57
2022-11-19T04:38:01.841Z,9.68
2022-11-19T04:39:33.632Z,8.65
2022-11-19T04:41:05.588Z,9.85
2022-11-19T04:42:37.326Z,9.85
2022-11-19T04:44:09.132Z,10.85
2022-11-19T04:45:40.952Z,10.15
2022-11-19T04:47:12.760Z,10.20
2022-11-19T04:48:44.516Z,10.85
2022-11-19T04:50:16.258Z,11.45
2022-11-19T04:51:47.982Z,8.70
2022-11-19T04:53:20.151Z,9.95
2022-11-19T04:54:51.895Z,11.38
2022-11-19T04:56:23.662Z,9.25
2022-11-19T04:57:55.518Z,8.90
2022-11-19T04:59:28.161Z,8.65
2022-11-19T05:00:59.919Z,9.80
2022-11-19T05:02:31.712Z,8.75
2022-11-19T05:04:03.555Z,9.57
2022-11-19T05:05:35.345Z,11.38
2022-11-19T05:07:07.122Z,10.77
2022-11-19T05:08:39.100Z,10.55
2022-11-19T05:10:11.028Z,10.02
2022-11-19T05:11:42.781Z,11.10
2022-11-19T05:13:14.574Z,10.95
2022-11-19T05:14:46.340Z,12.32
2022-11-19T05:16:18.167Z,11.82
2022-11-19T05:17:49.905Z,11.32
2022-11-19T05:19:21.830Z,9.13
2022-11-19T05:20:53.855Z,9.75
2022-11-19T05:22:26.028Z,9.02
2022-11-19T05:23:57.822Z,8.63
2022-11-19T05:25:29.725Z,9.65
2022-11-19T05:27:01.468Z,9.80
2022-11-19T05:28:39.107Z,9.70
2022-11-19T05:30:12.558Z,9.60
2022-11-19T05:31:44.292Z,10.32
2022-11-19T05:33:16.016Z,10.23
2022-11-19T05:34:48.539Z,9.45
2022-11-19T05:36:20.263Z,7.97
2022-11-19T05:37:52.237Z,8.27
2022-11-19T05:39:24.554Z,9.55
2022-11-19T05:40:56.640Z,9.10
2022-11-19T05:42:28.377Z,9.85
2022-11-19T05:44:00.137Z,8.57
2022-11-19T05:45:32.359Z,9.13
2022-11-19T05:47:04.162Z,10.07
2022-11-19T05:48:35.884Z,8.60
2022-11-19T05:50:08.356Z,8.35
2022-11-19T05:51:40.213Z,8.57
2022-11-19T05:53:12.072Z,10.43
2022-11-19T05:54:43.845Z,9.50
2022-11-19T05:56:15.669Z,8.05
2022-11-19T05:57:47.439Z,8.70
2022-11-19T05:59:20.527Z,10.57
2022-11-19T06:00:56.269Z,8.38
2022-11-19T06:02:28.380Z,9.55
2022-11-19T06:04:00.187Z,9.27
2022-11-19T06:05:35.904Z,9.98
2022-11-19T06:07:10.646Z,9.32
2022-11-19T06:08:42.393Z,8.82
2022-11-19T06:10:14.227Z,11.40
2022-11-19T06:11:48.550Z,8.35
2022-11-19T06:13:20.662Z,8.80
2022-11-19T06:14:52.451Z,8.15
2022-11-19T06:16:24.180Z,9.68
2022-11-19T06:17:56.515Z,9.75
2022-11-19T06:19:28.262Z,8.82
2022-11-19T06:20:59.968Z,8.65
2022-11-19T06:22:31.701Z,8.48
2022-11-19T06:24:03.643Z,8.15
2022-11-19T06:25:35.368Z,9.52
2022-11-19T06:27:07.557Z,8.80
2022-11-19T06:28:39.282Z,7.57
2022-11-19T06:30:11.925Z,8.65
2022-11-19T06:31:43.964Z,8.13
2022-11-19T06:33:15.686Z,9.20
2022-11-19T06:34:47.439Z,8.88
2022-11-19T06:36:19.902Z,8.93
2022-11-19T06:37:51.628Z,9.80
2022-11-19T06:39:23.560Z,8.32
2022-11-19T06:40:55.356Z,9.23
2022-11-19T06:42:39.154Z,10.02
2022-11-19T06:44:10.936Z,11.65
2022-11-19T06:45:42.685Z,10.73
2022-11-19T06:47:14.414Z,9.93
2022-11-19T06:48:46.163Z,10.45
2022-11-19T06:50:18.312Z,10.88
2022-11-19T06:51:50.234Z,10.93
2022-11-19T06:53:21.977Z,10.93
2022-11-19T06:54:53.784Z,10.55
2022-11-19T06:56:25.601Z,10.73
2022-11-19T06:58:02.323Z,9.60
2022-11-19T06:59:35.153Z,10.43
2022-11-19T07:01:07.227Z,9.60
2022-11-19T07:02:38.994Z,10.32
2022-11-19T07:04:10.832Z,9.77
2022-11-19T07:05:42.866Z,10.15
2022-11-19T07:07:14.924Z,9.48
2022-11-19T07:08:46.793Z,10.68
2022-11-19T07:10:19.148Z,10.07
2022-11-19T07:11:50.999Z,10.73
2022-11-19T07:13:22.746Z,8.40
2022-11-19T07:14:55.825Z,8.75
2022-11-19T07:16:34.583Z,8.35
2022-11-19T07:18:06.368Z,9.35
2022-11-19T07:19:38.269Z,9.05
2022-11-19T07:21:10.007Z,9.25
2022-11-19T07:22:42.428Z,9.30
2022-11-19T07:24:16.869Z,9.23
2022-11-19T07:25:48.607Z,9.10
2022-11-19T07:27:20.315Z,9.20
2022-11-19T07:28:52.458Z,7.88
2022-11-19T07:30:24.238Z,8.57
2022-11-19T07:31:55.964Z,8.98
2022-11-19T07:33:28.489Z,10.05
2022-11-19T07:35:00.280Z,9.68
2022-11-19T07:36:32.021Z,10.05
2022-11-19T07:38:03.727Z,8.80
2022-11-19T07:39:35.457Z,9.77
2022-11-19T07:41:27.663Z,8.90
2022-11-19T07:42:59.393Z,9.90
2022-11-19T07:44:32.240Z,7.30
2022-11-19T07:46:07.275Z,9.50
2022-11-19T07:47:39.048Z,10.00
2022-11-19T07:49:10.847Z,8.40
2022-11-19T07:50:42.953Z,11.52
2022-11-19T07:52:14.809Z,10.77
2022-11-19T07:53:46.573Z,9.98
2022-11-19T07:55:18.459Z,10.45
2022-11-19T07:56:50.233Z,10.57
2022-11-19T07:58:21.960Z,9.60
2022-11-19T07:59:53.728Z,9.30
2022-11-19T08:01:25.616Z,10.48
2022-11-19T08:02:57.351Z,10.35
2022-11-19T08:04:29.219Z,9.85
2022-11-19T08:06:03.803Z,12.00
2022-11-19T08:07:37.678Z,10.63
2022-11-19T08:09:09.493Z,10.00
2022-11-19T08:10:41.210Z,10.75
2022-11-19T08:12:12.945Z,10.65
2022-11-19T08:13:44.712Z,10.52
2022-11-19T08:15:16.497Z,10.63
2022-11-19T08:17:06.575Z,11.50
2022-11-19T08:18:38.706Z,11.77
2022-11-19T08:20:10.894Z,11.02
2022-11-19T08:21:45.273Z,11.77
2022-11-19T08:23:16.975Z,12.77
2022-11-19T08:24:48.828Z,12.40
2022-11-19T08:26:20.560Z,12.10
2022-11-19T08:27:52.280Z,12.35
2022-11-19T08:29:24.137Z,13.68
2022-11-19T08:30:56.149Z,12.40
2022-11-19T08:32:27.887Z,14.70
2022-11-19T08:34:01.701Z,13.10
2022-11-19T08:35:33.467Z,14.70
2022-11-19T08:37:06.095Z,13.57
2022-11-19T08:38:38.994Z,15.30
2022-11-19T08:40:11.074Z,16.50
2022-11-19T08:42:01.153Z,15.15
2022-11-19T08:43:33.217Z,14.32
2022-11-19T08:45:05.614Z,14.15
2022-11-19T08:46:38.276Z,16.08
2022-11-19T08:48:10.514Z,14.55
2022-11-19T08:49:42.797Z,14.73
2022-11-19T08:51:15.072Z,15.82
2022-11-19T08:52:46.843Z,14.73
2022-11-19T08:54:19.242Z,15.50
2022-11-19T08:55:51.820Z,14.82
2022-11-19T08:57:23.663Z,13.73
2022-11-19T08:59:01.255Z,13.95
2022-11-19T09:00:37.044Z,14.38
2022-11-19T09:02:11.103Z,14.55
2022-11-19T09:03:43.435Z,15.02
2022-11-19T09:05:15.375Z,15.68
2022-11-19T09:06:47.096Z,15.02
2022-11-19T09:08:18.837Z,17.20
2022-11-19T09:09:50.576Z,18.02
2022-11-19T09:11:22.983Z,20.88
2022-11-19T09:12:54.734Z,17.30
2022-11-19T09:14:26.808Z,16.55
2022-11-19T09:15:58.619Z,17.17
2022-11-19T09:17:31.212Z,16.92
2022-11-19T09:19:03.048Z,16.20
2022-11-19T09:20:36.224Z,18.42
2022-11-19T09:22:08.033Z,17.25
2022-11-19T09:23:41.571Z,15.38
2022-11-19T09:25:13.399Z,16.63
2022-11-19T09:26:50.233Z,17.75
2022-11-19T09:28:24.656Z,16.30
2022-11-19T09:29:56.473Z,14.88
2022-11-19T09:31:28.322Z,17.30
2022-11-19T09:33:00.234Z,17.58
2022-11-19T09:34:31.988Z,16.10
2022-11-19T09:36:04.629Z,17.85
2022-11-19T09:37:36.373Z,18.63
2022-11-19T09:39:08.124Z,16.20
2022-11-19T09:40:44.943Z,17.50
2022-11-19T09:42:28.025Z,16.42
2022-11-19T09:44:24.560Z,15.35
2022-11-19T09:46:06.694Z,15.95
2022-11-19T09:48:09.539Z,17.42
2022-11-19T09:49:47.159Z,15.75
2022-11-19T09:51:24.370Z,16.25
2022-11-19T09:53:07.120Z,17.42
2022-11-19T09:54:45.511Z,18.08
2022-11-19T09:56:25.552Z,16.75
2022-11-19T09:57:59.449Z,17.98
2022-11-19T09:59:39.320Z,19.45
2022-11-19T10:01:14.288Z,17.55
2022-11-19T10:02:46.088Z,19.83
2022-11-19T10:04:25.312Z,18.77
2022-11-19T10:06:15.100Z,20.02
2022-11-19T10:08:12.406Z,21.17
2022-11-19T10:10:12.694Z,18.65
2022-11-19T10:12:02.579Z,17.70
2022-11-19T10:13:37.017Z,19.05
2022-11-19T10:15:37.420Z,21.50
2022-11-19T10:17:40.556Z,19.02
2022-11-19T10:19:12.295Z,20.50
2022-11-19T10:21:07.103Z,22.92
2022-11-19T10:22:46.603Z,22.35
2022-11-19T10:24:38.501Z,20.67
2022-11-19T10:26:16.169Z,21.48
2022-11-19T10:28:01.999Z,24.55
2022-11-19T10:29:38.119Z,22.42
2022-11-19T10:31:31.743Z,25.10
2022-11-19T10:33:18.988Z,24.33
2022-11-19T10:34:54.185Z,25.15
2022-11-19T10:36:33.060Z,27.63
2022-11-19T10:38:14.486Z,24.83
2022-11-19T10:40:03.080Z,24.48
2022-11-19T10:41:51.698Z,23.60
2022-11-19T10:43:39.406Z,23.73
2022-11-19T10:45:22.249Z,22.55
2022-11-19T10:46:54.613Z,22.73
2022-11-19T10:48:36.529Z,22.85
2022-11-19T10:50:16.874Z,23.70
2022-11-19T10:51:48.704Z,21.98
2022-11-19T10:53:36.413Z,21.85
2022-11-19T10:55:23.836Z,23.73
2022-11-19T10:56:56.863Z,21.10
2022-11-19T10:58:39.249Z,22.58
2022-11-19T11:00:11.597Z,21.80
2022-11-19T11:01:46.738Z,21.02
2022-11-19T11:03:24.301Z,20.55
2022-11-19T11:05:01.994Z,21.45
2022-11-19T11:06:51.021Z,20.67
2022-11-19T11:08:23.710Z,20.95
2022-11-19T11:09:55.477Z,20.02
2022-11-19T11:11:50.669Z,19.63
2022-11-19T11:13:59.059Z,19.48
2022-11-19T11:15:31.809Z,20.17
2022-11-19T11:17:05.119Z,19.55
2022-11-19T11:18:42.278Z,19.27
2022-11-19T11:20:13.976Z,17.70
2022-11-19T11:21:45.964Z,19.60
2022-11-19T11:23:28.461Z,18.65
2022-11-19T11:25:06.815Z,17.98
2022-11-19T11:26:40.419Z,17.27
2022-11-19T11:28:16.684Z,18.05
2022-11-19T11:29:48.548Z,18.17
2022-11-19T11:31:30.936Z,17.90
2022-11-19T11:33:32.628Z,17.05
2022-11-19T11:35:09.043Z,16.05
2022-11-19T11:36:44.325Z,17.10
2022-11-19T11:38:20.331Z,15.98
2022-11-19T11:39:55.973Z,15.65
2022-11-19T11:43:33.852Z,18.05
2022-11-19T11:45:14.356Z,19.10
2022-11-19T11:46:48.336Z,18.25
2022-11-19T11:48:22.096Z,18.17
2022-11-19T11:50:17.389Z,18.05
2022-11-19T11:52:15.955Z,16.95
2022-11-19T11:54:04.045Z,18.45
2022-11-19T11:55:36.589Z,18.52
2022-11-19T11:57:17.924Z,19.27
2022-11-19T11:58:49.703Z,18.48
2022-11-19T12:00:29.360Z,18.42
2022-11-19T12:02:07.001Z,18.23
2022-11-19T12:03:55.244Z,17.85
2022-11-19T12:05:31.595Z,17.50
2022-11-19T12:07:18.719Z,17.48
2022-11-19T12:08:56.821Z,16.67
2022-11-19T12:10:52.249Z,16.42
2022-11-19T12:12:38.722Z,16.50
2022-11-19T12:14:11.816Z,15.02
2022-11-19T12:16:08.527Z,14.68
2022-11-19T12:17:58.965Z,14.30
2022-11-19T12:20:03.925Z,14.73
2022-11-19T12:21:47.917Z,15.18
2022-11-19T12:23:52.573Z,13.13
2022-11-19T12:25:48.714Z,14.60
2022-11-19T12:27:41.522Z,15.00
2022-11-19T12:29:31.726Z,15.20
2022-11-19T12:31:35.508Z,15.52
2022-11-19T12:33:28.451Z,15.75
2022-11-19T12:35:10.393Z,16.13
2022-11-19T12:37:16.531Z,15.52
2022-11-19T12:39:03.281Z,15.68
2022-11-19T12:40:43.366Z,15.20
2022-11-19T12:42:42.799Z,13.98
2022-11-19T12:44:37.524Z,15.00
2022-11-19T12:46:32.152Z,14.18
2022-11-19T12:48:24.557Z,12.90
2022-11-19T12:50:22.449Z,12.70
2022-11-19T12:52:03.353Z,12.10
2022-11-19T12:53:51.744Z,11.80
2022-11-19T12:55:50.636Z,11.80
2022-11-19T12:57:34.313Z,11.25
2022-11-19T12:59:06.010Z,12.48
2022-11-19T13:00:45.625Z,11.63
2022-11-19T13:02:27.038Z,12.88
2022-11-19T13:04:07.447Z,13.23
2022-11-19T13:05:54.293Z,8.77
2022-11-19T13:07:33.084Z,11.75
2022-11-19T13:09:14.534Z,12.70
2022-11-19T13:10:55.663Z,12.20
2022-11-19T13:12:36.366Z,10.75
2022-11-19T13:14:22.359Z,10.95
2022-11-19T13:16:13.034Z,10.85
2022-11-19T13:17:50.882Z,9.70
2022-11-19T13:19:27.777Z,11.27
2022-11-19T13:21:26.769Z,11.10
2022-11-19T13:23:02.929Z,10.70
2022-11-19T13:24:57.756Z,10.65
2022-11-19T13:26:35.545Z,11.20
2022-11-19T13:28:17.554Z,10.73
2022-11-19T13:29:58.713Z,10.35
2022-11-19T13:31:36.688Z,10.85
2022-11-19T13:33:23.039Z,10.27
2022-11-19T13:34:57.738Z,10.82
2022-11-19T13:36:38.359Z,9.55
2022-11-19T13:38:44.650Z,10.13
2022-11-19T13:40:30.946Z,10.52
2022-11-19T13:42:24.384Z,9.95
2022-11-19T13:44:15.356Z,10.45
2022-11-19T13:45:58.053Z,8.38
2022-11-19T13:47:48.483Z,10.90
2022-11-19T13:49:26.144Z,11.43
2022-11-19T13:51:01.193Z,10.38
2022-11-19T13:52:42.477Z,9.75
2022-11-19T13:54:27.484Z,10.75
2022-11-19T13:56:00.113Z,10.23
2022-11-19T13:57:33.949Z,11.05
2022-11-19T13:59:07.043Z,9.98
2022-11-19T14:00:39.664Z,10.35
2022-11-19T14:02:17.350Z,10.77
2022-11-19T14:04:18.454Z,11.18
2022-11-19T14:06:24.916Z,9.15
2022-11-19T14:08:15.247Z,11.95
2022-11-19T14:10:10.799Z,12.27
2022-11-19T14:12:06.087Z,11.05
2022-11-19T14:13:43.626Z,9.60
2022-11-19T14:15:39.890Z,10.35
2022-11-19T14:17:52.149Z,9.95
2022-11-19T14:19:42.341Z,10.88
2022-11-19T14:21:44.648Z,11.25
2022-11-19T14:24:00.112Z,10.50
2022-11-19T14:25:59.627Z,11.48
2022-11-19T14:27:32.086Z,11.13
2022-11-19T14:29:03.862Z,9.95
2022-11-19T14:31:05.059Z,10.85
2022-11-19T14:32:39.913Z,11.55
2022-11-19T14:34:32.478Z,10.38
2022-11-19T14:36:11.077Z,9.90
2022-11-19T14:37:47.894Z,9.15
2022-11-19T14:39:26.384Z,10.13
2022-11-19T14:41:14.048Z,9.40
2022-11-19T14:43:19.689Z,10.40
2022-11-19T14:45:03.601Z,11.52
2022-11-19T14:46:44.552Z,11.27
2022-11-19T14:48:16.314Z,10.60
2022-11-19T14:49:50.166Z,9.52
2022-11-19T14:51:39.143Z,10.45
2022-11-19T14:53:20.415Z,10.02
2022-11-19T14:55:03.830Z,10.73
2022-11-19T14:56:37.896Z,11.02
2022-11-19T14:58:21.613Z,10.02
2022-11-19T14:59:58.822Z,11.25
2022-11-19T15:01:31.295Z,10.18
2022-11-19T15:03:07.463Z,13.73
2022-11-19T15:04:57.973Z,12.43
2022-11-19T15:06:35.360Z,14.02
2022-11-19T15:08:18.860Z,13.07
2022-11-19T15:10:15.005Z,12.10
2022-11-19T15:11:55.552Z,14.52
2022-11-19T15:13:29.162Z,14.25
2022-11-19T15:15:20.839Z,13.02
2022-11-19T15:20:11.137Z,12.18
2022-11-19T15:22:21.270Z,14.27
2022-11-19T15:24:01.845Z,13.90
2022-11-19T15:26:15.056Z,13.40
2022-11-19T15:28:02.615Z,13.73
2022-11-19T15:29:52.397Z,14.05
2022-11-19T15:32:01.494Z,13.10
2022-11-19T15:33:48.783Z,13.95
2022-11-19T15:35:56.146Z,13.50
2022-11-19T15:37:42.659Z,14.40
2022-11-19T15:39:22.692Z,14.13
2022-11-19T15:40:58.922Z,15.02
2022-11-19T15:42:38.647Z,16.00
2022-11-19T15:44:17.404Z,17.08
2022-11-19T15:45:54.952Z,19.67
2022-11-19T15:47:52.507Z,18.40
2022-11-19T15:49:26.898Z,15.82
2022-11-19T15:51:00.726Z,16.30
2022-11-19T15:52:33.095Z,15.63
2022-11-19T15:54:07.161Z,16.15
2022-11-19T15:55:46.929Z,15.65
2022-11-19T15:57:27.120Z,16.17
2022-11-19T15:59:00.702Z,16.40
2022-11-19T16:00:45.425Z,14.75
2022-11-19T16:02:33.268Z,14.85
2022-11-19T16:04:15.495Z,16.98
2022-11-19T16:06:01.226Z,15.30
2022-11-19T16:07:33.544Z,13.30
2022-11-19T16:09:05.450Z,15.10
2022-11-19T16:10:40.672Z,14.90
2022-11-19T16:12:39.464Z,14.00
2022-11-19T16:14:37.540Z,12.75
2022-11-19T16:16:39.829Z,13.23
2022-11-19T16:18:16.369Z,13.20
2022-11-19T16:20:09.754Z,12.32
2022-11-19T16:21:44.925Z,12.48
2022-11-19T16:23:20.058Z,13.73
2022-11-19T16:25:03.695Z,13.48
2022-11-19T16:26:41.098Z,11.98
2022-11-19T16:28:13.737Z,12.75
2022-11-19T16:29:46.609Z,15.40
2022-11-19T16:31:18.429Z,15.18
2022-11-19T16:32:50.703Z,14.93
2022-11-19T16:34:23.759Z,17.15
2022-11-19T16:36:21.873Z,15.30
2022-11-19T16:37:55.310Z,17.17
2022-11-19T16:39:32.315Z,18.67
2022-11-19T16:41:23.226Z,17.80
2022-11-19T16:42:57.527Z,12.73
2022-11-19T16:44:29.901Z,17.70
2022-11-19T16:46:01.845Z,16.55
2022-11-19T16:47:40.410Z,17.85
2022-11-19T16:49:30.462Z,15.75
2022-11-19T16:51:26.462Z,16.00
2022-11-19T16:53:00.604Z,16.77
2022-11-19T16:54:49.961Z,15.55
2022-11-19T16:56:22.633Z,16.92
2022-11-19T16:58:02.185Z,19.77
2022-11-19T16:59:34.620Z,16.33
2022-11-19T17:01:06.476Z,17.08
2022-11-19T17:02:40.819Z,17.00
2022-11-19T17:04:14.450Z,16.80
2022-11-19T17:05:49.028Z,16.70
2022-11-19T17:07:24.959Z,15.35
2022-11-19T17:09:01.038Z,15.95
2022-11-19T17:10:34.260Z,15.98
2022-11-19T17:12:22.424Z,15.63
2022-11-19T17:13:54.153Z,15.43
2022-11-19T17:15:40.775Z,14.75
2022-11-19T17:17:39.920Z,16.05
2022-11-19T17:19:39.128Z,16.50
2022-11-19T17:21:31.260Z,14.88
2022-11-19T17:23:11.333Z,15.40
2022-11-19T17:24:45.945Z,17.10
2022-11-19T17:26:21.229Z,16.52
2022-11-19T17:27:56.026Z,16.35
2022-11-19T17:29:27.802Z,16.55
2022-11-19T17:31:00.535Z,15.93
2022-11-19T17:32:35.181Z,13.50
2022-11-19T17:34:19.805Z,14.90
2022-11-19T17:35:52.384Z,13.65
2022-11-19T17:37:24.119Z,14.00
2022-11-19T17:38:56.266Z,12.30
2022-11-19T17:40:28.032Z,13.52
2022-11-19T17:42:18.542Z,13.73
2022-11-19T17:44:08.908Z,13.20
2022-11-19T17:45:40.650Z,13.93
2022-11-19T17:47:23.182Z,13.77
2022-11-19T17:48:57.013Z,13.52
2022-11-19T17:50:28.764Z,14.38
2022-11-19T17:52:00.534Z,15.27
2022-11-19T17:53:32.292Z,15.52
2022-11-19T17:55:33.768Z,17.70
2022-11-19T17:57:05.497Z,12.32
2022-11-19T17:58:37.237Z,15.27
2022-11-19T18:00:10.451Z,16.40
2022-11-19T18:01:42.688Z,16.00
2022-11-19T18:03:15.328Z,16.95
2022-11-19T18:04:48.147Z,14.93
2022-11-19T18:06:21.561Z,15.50
2022-11-19T18:07:55.118Z,14.23
2022-11-19T18:09:30.937Z,13.77
2022-11-19T18:11:05.839Z,13.55
2022-11-19T18:12:37.606Z,14.23
2022-11-19T18:14:10.242Z,13.27
2022-11-19T18:15:42.144Z,13.18
2022-11-19T18:17:15.062Z,12.32
2022-11-19T18:18:47.592Z,11.70
2022-11-19T18:20:19.341Z,11.50
2022-11-19T18:21:51.394Z,11.70
2022-11-19T18:23:23.129Z,11.63
2022-11-19T18:24:55.107Z,12.27
2022-11-19T18:26:26.847Z,11.48
2022-11-19T18:27:58.580Z,13.27
2022-11-19T18:29:32.058Z,15.10
2022-11-19T18:31:04.214Z,15.13
2022-11-19T18:32:36.153Z,12.73
2022-11-19T18:34:14.168Z,13.50
2022-11-19T18:35:45.892Z,14.30
2022-11-19T18:37:17.675Z,13.60
2022-11-19T18:38:49.741Z,12.88
2022-11-19T18:40:21.614Z,12.80
2022-11-19T18:41:53.459Z,12.02
2022-11-19T18:43:43.940Z,13.20
2022-11-19T18:45:15.691Z,12.02
2022-11-19T18:46:47.470Z,12.02
2022-11-19T18:48:19.207Z,12.40
2022-11-19T18:49:50.961Z,12.40
2022-11-19T18:51:22.821Z,13.07
2022-11-19T18:52:54.572Z,11.05
2022-11-19T18:54:26.448Z,13.77
2022-11-19T18:55:58.165Z,12.35
2022-11-19T18:57:29.886Z,11.07
2022-11-19T18:59:04.751Z,12.65
2022-11-19T19:00:36.941Z,11.55
2022-11-19T19:02:10.816Z,12.77
2022-11-19T19:03:42.869Z,11.07
2022-11-19T19:05:14.672Z,12.30
2022-11-19T19:06:46.436Z,12.05
2022-11-19T19:08:18.303Z,13.50
2022-11-19T19:09:50.044Z,12.88
2022-11-19T19:11:40.167Z,12.55
2022-11-19T19:13:11.914Z,12.27
2022-11-19T19:14:48.908Z,13.82
2022-11-19T19:16:20.945Z,14.07
2022-11-19T19:17:52.673Z,16.02
2022-11-19T19:19:24.470Z,13.85
2022-11-19T19:20:56.210Z,15.63
2022-11-19T19:22:29.049Z,15.43
2022-11-19T19:24:00.778Z,14.05
2022-11-19T19:25:32.512Z,13.80
2022-11-19T19:27:04.712Z,14.18
2022-11-19T19:28:36.685Z,15.88
2022-11-19T19:30:09.714Z,13.25
2022-11-19T19:31:41.472Z,13.85
2022-11-19T19:33:13.181Z,15.00
2022-11-19T19:34:44.924Z,13.20
2022-11-19T19:36:18.973Z,14.10
2022-11-19T19:37:50.718Z,15.90
2022-11-19T19:39:22.680Z,15.68
2022-11-19T19:40:54.631Z,13.00
2022-11-19T19:42:28.627Z,14.02
2022-11-19T19:44:03.127Z,14.23
2022-11-19T19:45:35.325Z,13.20
2022-11-19T19:47:07.101Z,14.80
2022-11-19T19:48:39.253Z,14.57
2022-11-19T19:50:11.281Z,14.70
2022-11-19T19:51:43.116Z,15.77
2022-11-19T19:53:14.851Z,15.18
2022-11-19T19:54:46.694Z,13.98
2022-11-19T19:56:27.195Z,13.77
2022-11-19T19:58:00.049Z,14.90
2022-11-19T19:59:31.811Z,13.80
2022-11-19T20:01:08.503Z,14.73
2022-11-19T20:02:40.529Z,15.55
2022-11-19T20:04:15.025Z,14.32
2022-11-19T20:05:49.785Z,14.65
2022-11-19T20:07:21.657Z,14.15
2022-11-19T20:08:53.526Z,14.98
2022-11-19T20:10:25.263Z,15.85
2022-11-19T20:11:57.050Z,15.20
2022-11-19T20:13:29.299Z,15.25
2022-11-19T20:15:01.328Z,17.25
2022-11-19T20:16:34.029Z,17.70
2022-11-19T20:18:05.949Z,17.70
2022-11-19T20:19:37.722Z,15.23
2022-11-19T20:21:11.895Z,15.27
2022-11-19T20:22:43.645Z,16.73
2022-11-19T20:24:17.417Z,15.15
2022-11-19T20:25:49.202Z,18.70
2022-11-19T20:27:21.702Z,16.30
2022-11-19T20:29:01.083Z,17.73
2022-11-19T20:30:32.856Z,18.50
2022-11-19T20:32:04.897Z,14.80
2022-11-19T20:33:37.784Z,16.60
2022-11-19T20:35:09.546Z,14.85
2022-11-19T20:36:41.477Z,16.27
2022-11-19T20:38:13.246Z,16.85
2022-11-19T20:39:45.116Z,16.77
2022-11-19T20:41:36.791Z,16.17
2022-11-19T20:44:59.103Z,12.60
2022-11-19T20:46:30.856Z,14.25
2022-11-19T20:48:02.601Z,13.18
2022-11-19T20:49:36.458Z,14.20
2022-11-19T20:51:08.867Z,14.35
2022-11-19T20:52:40.601Z,18.60
2022-11-19T20:54:13.066Z,15.80
2022-11-19T20:56:04.563Z,16.38
2022-11-19T20:57:37.127Z,17.58
2022-11-19T20:59:09.298Z,15.68
2022-11-19T21:00:41.052Z,16.15
2022-11-19T21:02:13.004Z,17.92
2022-11-19T21:03:44.762Z,17.08
2022-11-19T21:05:16.517Z,17.45
2022-11-19T21:06:50.055Z,18.60
2022-11-19T21:08:21.913Z,17.40
2022-11-19T21:09:53.791Z,15.90
2022-11-19T21:11:25.718Z,17.88
2022-11-19T21:13:03.280Z,16.55
2022-11-19T21:14:35.099Z,17.90
2022-11-19T21:16:09.238Z,14.90